createdAt,value
2019-02-17T00:02:30.918Z,99799.09
2019-02-17T00:05:02.402Z,99803.27
2019-02-17T00:07:34.224Z,99802.03
2019-02-17T00:10:06.629Z,99799.75
2019-02-17T00:12:37.855Z,99792.92
2019-02-17T00:15:09.529Z,99787.23
2019-02-17T00:17:40.608Z,99786.44
2019-02-17T00:20:11.835Z,99782.81
2019-02-17T00:22:43.092Z,99786.35
2019-02-17T00:25:14.506Z,99786.22
2019-02-17T00:27:45.987Z,99785.33
2019-02-17T00:30:17.415Z,99781.25
2019-02-17T00:32:49.161Z,99779.11
2019-02-17T00:35:20.618Z,99774.39
2019-02-17T00:37:52.074Z,99774.58
2019-02-17T00:40:23.393Z,99775.03
2019-02-17T00:42:54.864Z,99775.42
2019-02-17T00:45:26.311Z,99774.60
2019-02-17T00:47:57.772Z,99767.33
2019-02-17T00:50:29.092Z,99763.48
2019-02-17T00:53:00.562Z,99764.23
2019-02-17T00:55:32.060Z,99756.63
2019-02-17T00:58:03.369Z,99760.78
2019-02-17T01:00:34.745Z,99750.44
2019-02-17T01:03:06.257Z,99743.97
2019-02-17T01:05:37.587Z,99740.42
2019-02-17T01:08:08.959Z,99728.75
2019-02-17T01:10:40.291Z,99729.16
2019-02-17T01:13:11.738Z,99728.23
2019-02-17T01:15:43.144Z,99725.05
2019-02-17T01:18:14.650Z,99725.05
2019-02-17T01:20:45.988Z,99723.11
2019-02-17T01:23:17.455Z,99731.66
2019-02-17T01:25:48.846Z,99728.38
2019-02-17T01:28:20.252Z,99719.31
2019-02-17T01:30:51.733Z,99725.46
2019-02-17T01:33:23.160Z,99714.02
2019-02-17T01:35:54.679Z,99718.73
2019-02-17T01:38:26.043Z,99714.30
2019-02-17T01:40:57.516Z,99706.01
2019-02-17T01:43:28.821Z,99710.12
2019-02-17T01:46:00.209Z,99713.06
2019-02-17T01:48:31.541Z,99712.66
2019-02-17T01:51:02.996Z,99708.79
2019-02-17T01:53:34.363Z,99706.48
2019-02-17T01:56:05.734Z,99709.27
2019-02-17T01:58:37.143Z,99708.28
2019-02-17T02:01:08.617Z,99705.88
2019-02-17T02:03:40.029Z,99704.81
2019-02-17T02:06:11.527Z,99705.47
2019-02-17T02:08:42.908Z,99699.86
2019-02-17T02:11:14.291Z,99703.70
2019-02-17T02:13:45.855Z,99696.95
2019-02-17T02:16:17.312Z,99707.27
2019-02-17T02:18:48.691Z,99694.91
2019-02-17T02:21:20.019Z,99696.13
2019-02-17T02:23:51.455Z,99697.39
2019-02-17T02:26:23.952Z,99690.26
2019-02-17T02:28:56.428Z,99693.21
2019-02-17T02:31:27.803Z,99685.47
2019-02-17T02:33:59.188Z,99687.92
2019-02-17T02:36:30.511Z,99686.49
2019-02-17T02:39:01.812Z,99691.17
2019-02-17T02:41:35.012Z,99687.71
2019-02-17T02:44:06.647Z,99677.94
2019-02-17T02:46:37.991Z,99680.04
2019-02-17T02:49:09.333Z,99673.70
2019-02-17T02:51:40.783Z,99665.72
2019-02-17T02:54:12.259Z,99677.36
2019-02-17T02:56:43.701Z,99668.94
2019-02-17T02:59:15.128Z,99673.83
2019-02-17T03:01:46.582Z,99677.12
2019-02-17T03:04:17.959Z,99667.83
2019-02-17T03:06:51.098Z,99671.48
2019-02-17T03:09:22.676Z,99682.11
2019-02-17T03:11:53.947Z,99675.32
2019-02-17T03:14:25.385Z,99677.33
2019-02-17T03:16:56.715Z,99673.36
2019-02-17T03:19:28.060Z,99665.69
2019-02-17T03:21:59.528Z,99658.95
2019-02-17T03:24:30.943Z,99652.55
2019-02-17T03:27:02.341Z,99650.44
2019-02-17T03:29:33.755Z,99652.45
2019-02-17T03:32:05.205Z,99644.84
2019-02-17T03:34:36.656Z,99643.66
2019-02-17T03:37:08.100Z,99642.23
2019-02-17T03:39:39.718Z,99629.87
2019-02-17T03:42:11.170Z,99636.47
2019-02-17T03:44:42.658Z,99630.89
2019-02-17T03:47:14.203Z,99626.39
2019-02-17T03:49:45.781Z,99618.55
2019-02-17T03:52:17.220Z,99624.69
2019-02-17T03:54:48.658Z,99626.21
2019-02-17T03:57:19.918Z,99614.98
2019-02-17T03:59:51.381Z,99625.95
2019-02-17T04:02:22.907Z,99628.25
2019-02-17T04:04:54.290Z,99622.79
2019-02-17T04:07:26.598Z,99628.42
2019-02-17T04:09:58.106Z,99624.95
2019-02-17T04:12:30.454Z,99633.89
2019-02-17T04:15:01.902Z,99631.30
2019-02-17T04:17:33.329Z,99633.11
2019-02-17T04:20:05.860Z,99628.80
2019-02-17T04:22:38.314Z,99628.56
2019-02-17T04:25:09.764Z,99626.63
2019-02-17T04:27:41.297Z,99624.82
2019-02-17T04:30:12.759Z,99619.09
2019-02-17T04:32:44.101Z,99624.11
2019-02-17T04:35:15.353Z,99617.12
2019-02-17T04:37:46.833Z,99619.89
2019-02-17T04:40:18.287Z,99615.92
2019-02-17T04:42:49.658Z,99618.11
2019-02-17T04:45:21.148Z,99621.55
2019-02-17T04:47:52.611Z,99615.28
2019-02-17T04:50:24.053Z,99618.13
2019-02-17T04:52:55.393Z,99622.06
2019-02-17T04:55:27.056Z,99611.14
2019-02-17T04:57:58.504Z,99614.06
2019-02-17T05:00:39.509Z,99606.27
2019-02-17T05:03:03.043Z,99617.48
2019-02-17T05:05:34.378Z,99617.75
2019-02-17T05:08:05.723Z,99623.82
2019-02-17T05:10:37.218Z,99614.71
2019-02-17T05:13:08.673Z,99620.14
2019-02-17T05:15:40.240Z,99613.82
2019-02-17T05:18:11.742Z,99622.59
2019-02-17T05:20:43.074Z,99616.93
2019-02-17T05:23:14.529Z,99610.27
2019-02-17T05:25:45.894Z,99611.43
2019-02-17T05:28:17.528Z,99627.52
2019-02-17T05:30:52.938Z,99618.34
2019-02-17T05:33:22.190Z,99614.53
2019-02-17T05:35:53.627Z,99604.21
2019-02-17T05:38:26.162Z,99605.77
2019-02-17T05:40:57.535Z,99601.91
2019-02-17T05:43:29.087Z,99598.67
2019-02-17T05:46:00.363Z,99597.00
2019-02-17T05:48:31.733Z,99594.36
2019-02-17T05:51:03.249Z,99590.45
2019-02-17T05:53:34.605Z,99597.07
2019-02-17T05:56:06.073Z,99596.83
2019-02-17T05:58:37.490Z,99597.50
2019-02-17T06:01:08.869Z,99593.03
2019-02-17T06:03:40.305Z,99589.55
2019-02-17T06:06:11.718Z,99585.80
2019-02-17T06:08:43.196Z,99581.61
2019-02-17T06:11:14.512Z,99569.27
2019-02-17T06:13:45.868Z,99562.30
2019-02-17T06:16:17.222Z,99550.44
2019-02-17T06:18:48.737Z,99542.91
2019-02-17T06:21:20.112Z,99547.12
2019-02-17T06:23:51.479Z,99545.09
2019-02-17T06:26:22.812Z,99550.10
2019-02-17T06:28:54.145Z,99551.05
2019-02-17T06:31:28.846Z,99554.31
2019-02-17T06:34:00.380Z,99547.46
2019-02-17T06:36:31.812Z,99558.00
2019-02-17T06:39:04.746Z,99560.56
2019-02-17T06:41:36.294Z,99557.29
2019-02-17T06:44:07.652Z,99549.96
2019-02-17T06:46:40.550Z,99546.42
2019-02-17T06:49:12.148Z,99546.93
2019-02-17T06:51:43.590Z,99550.16
2019-02-17T06:54:15.050Z,99544.20
2019-02-17T06:56:48.056Z,99543.44
2019-02-17T06:59:19.387Z,99536.20
2019-02-17T07:01:50.882Z,99532.28
2019-02-17T07:04:23.825Z,99529.81
2019-02-17T07:06:56.822Z,99538.28
2019-02-17T07:09:28.278Z,99540.38
2019-02-17T07:11:59.486Z,99539.41
2019-02-17T07:14:30.573Z,99533.47
2019-02-17T07:17:02.171Z,99530.25
2019-02-17T07:19:33.250Z,99523.66
2019-02-17T07:22:04.271Z,99529.81
2019-02-17T07:24:35.717Z,99519.89
2019-02-17T07:27:07.167Z,99519.13
2019-02-17T07:29:38.378Z,99511.66
2019-02-17T07:32:11.322Z,99524.75
2019-02-17T07:34:42.827Z,99529.80
2019-02-17T07:37:14.452Z,99523.17
2019-02-17T07:39:45.951Z,99541.36
2019-02-17T07:42:17.285Z,99545.91
2019-02-17T07:44:48.731Z,99536.77
2019-02-17T07:47:21.107Z,99539.12
2019-02-17T07:49:52.559Z,99538.39
2019-02-17T07:52:23.945Z,99533.86
2019-02-17T07:54:55.246Z,99526.40
2019-02-17T07:57:26.723Z,99527.44
2019-02-17T07:59:58.193Z,99528.04
2019-02-17T08:02:29.620Z,99527.14
2019-02-17T08:05:01.068Z,99512.35
2019-02-17T08:07:32.501Z,99520.49
2019-02-17T08:10:08.436Z,99521.02
2019-02-17T08:12:39.927Z,99522.09
2019-02-17T08:15:11.287Z,99513.84
2019-02-17T08:17:42.618Z,99516.58
2019-02-17T08:20:13.980Z,99525.41
2019-02-17T08:22:45.344Z,99514.77
2019-02-17T08:25:21.727Z,99526.89
2019-02-17T08:27:49.877Z,99527.91
2019-02-17T08:30:21.239Z,99529.23
2019-02-17T08:32:52.500Z,99514.19
2019-02-17T08:35:24.013Z,99509.45
2019-02-17T08:37:55.359Z,99509.19
2019-02-17T08:40:26.834Z,99497.16
2019-02-17T08:42:58.207Z,99490.39
2019-02-17T08:45:29.691Z,99481.88
2019-02-17T08:48:01.158Z,99491.48
2019-02-17T08:50:32.598Z,99497.20
2019-02-17T08:53:04.052Z,99494.34
2019-02-17T08:55:35.381Z,99486.69
2019-02-17T08:58:06.809Z,99489.70
2019-02-17T09:00:38.124Z,99483.14
2019-02-17T09:03:09.524Z,99475.11
2019-02-17T09:05:44.409Z,99468.58
2019-02-17T09:08:15.366Z,99457.58
2019-02-17T09:10:46.711Z,99457.00
2019-02-17T09:13:18.655Z,99461.34
2019-02-17T09:15:50.423Z,99450.23
2019-02-17T09:18:21.818Z,99458.91
2019-02-17T09:20:53.310Z,99450.70
2019-02-17T09:23:24.647Z,99458.80
2019-02-17T09:25:55.983Z,99452.84
2019-02-17T09:28:27.355Z,99442.30
2019-02-17T09:30:58.762Z,99438.05
2019-02-17T09:33:30.078Z,99442.07
2019-02-17T09:36:01.566Z,99427.09
2019-02-17T09:38:32.978Z,99428.13
2019-02-17T09:41:04.457Z,99438.44
2019-02-17T09:43:35.841Z,99439.45
2019-02-17T09:46:07.170Z,99423.80
2019-02-17T09:48:38.519Z,99426.49
2019-02-17T09:51:11.067Z,99417.30
2019-02-17T09:53:42.414Z,99418.30
2019-02-17T09:56:14.817Z,99421.81
2019-02-17T09:58:46.154Z,99416.45
2019-02-17T10:01:17.527Z,99403.92
2019-02-17T10:03:48.944Z,99390.90
2019-02-17T10:06:20.421Z,99387.84
2019-02-17T10:08:51.778Z,99386.13
2019-02-17T10:11:23.194Z,99366.17
2019-02-17T10:13:54.759Z,99370.97
2019-02-17T10:16:26.237Z,99365.81
2019-02-17T10:18:57.554Z,99362.64
2019-02-17T10:21:29.095Z,99359.84
2019-02-17T10:24:00.566Z,99355.05
2019-02-17T10:26:31.909Z,99348.97
2019-02-17T10:29:03.248Z,99346.30
2019-02-17T10:31:34.543Z,99333.27
2019-02-17T10:34:05.867Z,99340.34
2019-02-17T10:36:37.213Z,99340.34
2019-02-17T10:39:08.713Z,99329.66
2019-02-17T10:41:40.196Z,99322.39
2019-02-17T10:44:11.605Z,99324.05
2019-02-17T10:46:43.123Z,99320.23
2019-02-17T10:49:14.450Z,99317.20
2019-02-17T10:51:45.879Z,99309.75
2019-02-17T10:54:17.215Z,99296.09
2019-02-17T10:56:48.551Z,99293.02
2019-02-17T10:59:20.045Z,99282.88
2019-02-17T11:01:51.605Z,99285.94
2019-02-17T11:04:22.899Z,99285.94
2019-02-17T11:06:54.256Z,99288.95
2019-02-17T11:09:25.605Z,99291.48
2019-02-17T11:11:56.996Z,99279.78
2019-02-17T11:14:28.437Z,99285.72
2019-02-17T11:17:00.108Z,99276.08
2019-02-17T11:19:31.544Z,99269.19
2019-02-17T11:22:02.978Z,99258.33
2019-02-17T11:24:34.323Z,99256.53
2019-02-17T11:27:05.777Z,99253.82
2019-02-17T11:29:37.262Z,99243.91
2019-02-17T11:32:08.678Z,99239.09
2019-02-17T11:34:40.100Z,99243.18
2019-02-17T11:37:11.459Z,99235.22
2019-02-17T11:39:42.797Z,99236.22
2019-02-17T11:42:14.101Z,99244.23
2019-02-17T11:44:45.523Z,99237.48
2019-02-17T11:47:16.902Z,99233.59
2019-02-17T11:49:48.125Z,99234.77
2019-02-17T11:52:19.543Z,99215.00
2019-02-17T11:54:51.021Z,99203.30
2019-02-17T11:57:22.483Z,99198.19
2019-02-17T11:59:53.911Z,99191.42
2019-02-17T12:02:25.530Z,99176.97
2019-02-17T12:04:57.447Z,99188.64
2019-02-17T12:07:28.865Z,99191.75
2019-02-17T12:10:01.463Z,99186.84
2019-02-17T12:12:33.915Z,99179.27
2019-02-17T12:15:08.624Z,99159.62
2019-02-17T12:17:40.149Z,99157.73
2019-02-17T12:20:41.391Z,99149.13
2019-02-17T12:23:20.400Z,99143.83
2019-02-17T12:25:56.344Z,99136.11
2019-02-17T12:28:29.227Z,99137.85
2019-02-17T12:31:00.682Z,99129.47
2019-02-17T12:33:32.003Z,99141.41
2019-02-17T12:36:03.326Z,99126.14
2019-02-17T12:38:34.718Z,99127.70
2019-02-17T12:41:06.170Z,99144.02
2019-02-17T12:43:37.613Z,99143.45
2019-02-17T12:46:09.076Z,99139.20
2019-02-17T12:48:40.537Z,99152.41
2019-02-17T12:51:11.913Z,99147.98
2019-02-17T12:53:43.307Z,99137.92
2019-02-17T12:56:14.662Z,99137.38
2019-02-17T12:58:45.901Z,99134.70
2019-02-17T13:01:17.358Z,99135.23
2019-02-17T13:03:48.679Z,99132.95
2019-02-17T13:06:20.064Z,99128.69
2019-02-17T13:08:51.395Z,99134.36
2019-02-17T13:11:22.810Z,99131.20
2019-02-17T13:13:54.204Z,99120.08
2019-02-17T13:16:25.554Z,99121.11
2019-02-17T13:18:57.028Z,99125.44
2019-02-17T13:21:28.343Z,99130.91
2019-02-17T13:23:59.634Z,99131.17
2019-02-17T13:26:30.950Z,99148.14
2019-02-17T13:29:02.337Z,99135.94
2019-02-17T13:31:33.738Z,99139.95
2019-02-17T13:34:05.194Z,99130.00
2019-02-17T13:36:36.532Z,99133.50
2019-02-17T13:39:08.012Z,99130.89
2019-02-17T13:41:39.464Z,99125.98
2019-02-17T13:44:10.770Z,99123.23
2019-02-17T13:46:42.271Z,99118.58
2019-02-17T13:49:13.892Z,99116.55
2019-02-17T13:51:45.468Z,99110.95
2019-02-17T13:54:16.884Z,99100.95
2019-02-17T13:56:48.273Z,99097.53
2019-02-17T13:59:19.609Z,99105.78
2019-02-17T14:01:51.035Z,99107.36
2019-02-17T14:04:22.604Z,99090.63
2019-02-17T14:06:53.917Z,99104.92
2019-02-17T14:09:25.391Z,99104.97
2019-02-17T14:11:56.738Z,99105.35
2019-02-17T14:14:28.398Z,99091.33
2019-02-17T14:16:59.835Z,99096.61
2019-02-17T14:19:31.184Z,99096.30
2019-02-17T14:22:02.541Z,99088.46
2019-02-17T14:24:34.020Z,99084.88
2019-02-17T14:27:05.449Z,99078.52
2019-02-17T14:29:36.876Z,99070.72
2019-02-17T14:32:08.332Z,99069.43
2019-02-17T14:34:39.648Z,99064.88
2019-02-17T14:37:13.263Z,99066.12
2019-02-17T14:39:44.016Z,99073.57
2019-02-17T14:42:15.353Z,99076.82
2019-02-17T14:44:47.037Z,99093.98
2019-02-17T14:47:18.563Z,99093.98
2019-02-17T14:49:50.059Z,99085.54
2019-02-17T14:52:21.392Z,99086.30
2019-02-17T14:54:52.744Z,99089.39
2019-02-17T14:57:24.108Z,99093.67
2019-02-17T14:59:55.638Z,99089.37
2019-02-17T15:02:26.873Z,99085.14
2019-02-17T15:04:58.255Z,99093.04
2019-02-17T15:07:29.663Z,99089.53
2019-02-17T15:10:01.016Z,99094.72
2019-02-17T15:12:33.584Z,99096.92
2019-02-17T15:15:07.265Z,99088.20
2019-02-17T15:17:38.634Z,99089.97
2019-02-17T15:20:13.188Z,99087.55
2019-02-17T15:22:44.516Z,99091.92
2019-02-17T15:25:15.816Z,99095.98
2019-02-17T15:27:47.195Z,99103.69
2019-02-17T15:30:18.653Z,99094.83
2019-02-17T15:32:49.996Z,99091.30
2019-02-17T15:35:22.464Z,99091.04
2019-02-17T15:37:54.135Z,99104.73
2019-02-17T15:40:26.572Z,99093.89
2019-02-17T15:42:58.020Z,99097.61
2019-02-17T15:45:29.446Z,99100.15
2019-02-17T15:48:00.753Z,99115.83
2019-02-17T15:50:32.117Z,99118.73
2019-02-17T15:53:03.552Z,99117.79
2019-02-17T15:55:35.001Z,99113.27
2019-02-17T15:58:06.442Z,99123.19
2019-02-17T16:00:37.801Z,99125.78
2019-02-17T16:03:09.170Z,99124.34
2019-02-17T16:05:40.632Z,99129.19
2019-02-17T16:08:12.071Z,99131.26
2019-02-17T16:10:43.424Z,99122.76
2019-02-17T16:13:14.763Z,99125.94
2019-02-17T16:15:46.305Z,99134.91
2019-02-17T16:18:17.747Z,99139.32
2019-02-17T16:20:50.224Z,99140.36
2019-02-17T16:23:21.660Z,99141.95
2019-02-17T16:25:53.132Z,99147.81
2019-02-17T16:28:24.576Z,99145.63
2019-02-17T16:30:56.020Z,99141.98
2019-02-17T16:33:27.394Z,99144.00
2019-02-17T16:35:58.848Z,99147.95
2019-02-17T16:38:30.211Z,99151.05
2019-02-17T16:41:01.540Z,99152.73
2019-02-17T16:43:32.966Z,99151.03
2019-02-17T16:46:04.406Z,99146.41
2019-02-17T16:48:35.875Z,99156.43
2019-02-17T16:51:07.420Z,99147.74
2019-02-17T16:53:38.875Z,99153.41
2019-02-17T16:56:10.335Z,99155.94
2019-02-17T16:58:41.737Z,99164.95
2019-02-17T17:01:13.214Z,99153.09
2019-02-17T17:03:44.672Z,99162.06
2019-02-17T17:06:16.134Z,99149.31
2019-02-17T17:08:47.569Z,99159.09
2019-02-17T17:11:18.886Z,99157.44
2019-02-17T17:13:50.361Z,99160.83
2019-02-17T17:16:21.724Z,99164.92
2019-02-17T17:18:53.072Z,99161.84
2019-02-17T17:21:24.546Z,99166.12
2019-02-17T17:23:55.901Z,99172.30
2019-02-17T17:26:27.320Z,99158.16
2019-02-17T17:28:58.745Z,99160.52
2019-02-17T17:31:30.202Z,99156.20
2019-02-17T17:34:01.547Z,99162.02
2019-02-17T17:36:32.893Z,99165.53
2019-02-17T17:39:04.474Z,99162.55
2019-02-17T17:41:37.822Z,99157.05
2019-02-17T17:44:09.191Z,99155.71
2019-02-17T17:46:40.653Z,99154.03
2019-02-17T17:49:19.016Z,99146.87
2019-02-17T17:51:46.420Z,99148.06
2019-02-17T17:54:17.848Z,99147.54
2019-02-17T17:56:49.217Z,99143.58
2019-02-17T17:59:20.776Z,99140.63
2019-02-17T18:01:51.984Z,99147.47
2019-02-17T18:04:23.478Z,99144.59
2019-02-17T18:06:57.007Z,99141.61
2019-02-17T18:09:27.929Z,99153.61
2019-02-17T18:11:59.450Z,99156.27
2019-02-17T18:14:30.817Z,99146.11
2019-02-17T18:17:02.055Z,99154.94
2019-02-17T18:19:33.493Z,99163.25
2019-02-17T18:22:04.947Z,99163.66
2019-02-17T18:24:36.401Z,99158.64
2019-02-17T18:27:07.966Z,99153.34
2019-02-17T18:29:39.334Z,99153.69
2019-02-17T18:32:10.745Z,99160.49
2019-02-17T18:34:42.206Z,99165.67
2019-02-17T18:37:13.546Z,99169.16
2019-02-17T18:39:45.764Z,99171.84
2019-02-17T18:42:17.172Z,99173.34
2019-02-17T18:44:48.413Z,99173.98
2019-02-17T18:47:20.019Z,99179.33
2019-02-17T18:49:51.422Z,99181.16
2019-02-17T18:52:22.878Z,99183.65
2019-02-17T18:54:55.275Z,99176.34
2019-02-17T18:57:26.623Z,99184.30
2019-02-17T18:59:58.130Z,99176.48
2019-02-17T19:02:29.472Z,99184.16
2019-02-17T19:05:01.134Z,99183.98
2019-02-17T19:07:32.490Z,99190.16
2019-02-17T19:10:04.954Z,99185.64
2019-02-17T19:12:36.412Z,99185.14
2019-02-17T19:15:12.814Z,99181.66
2019-02-17T19:17:44.199Z,99183.17
2019-02-17T19:20:30.585Z,99183.67
2019-02-17T19:23:02.078Z,99170.03
2019-02-17T19:25:33.527Z,99186.66
2019-02-17T19:28:04.978Z,99184.98
2019-02-17T19:30:36.429Z,99187.65
2019-02-17T19:33:07.892Z,99170.70
2019-02-17T19:35:42.119Z,99185.34
2019-02-17T19:38:12.330Z,99176.68
2019-02-17T19:40:43.764Z,99176.03
2019-02-17T19:43:15.310Z,99176.03
2019-02-17T19:45:46.632Z,99187.17
2019-02-17T19:48:17.984Z,99174.31
2019-02-17T19:50:49.326Z,99182.31
2019-02-17T19:53:20.623Z,99188.95
2019-02-17T19:55:51.997Z,99193.30
2019-02-17T19:58:23.401Z,99183.64
2019-02-17T20:00:54.798Z,99196.61
2019-02-17T20:03:36.664Z,99189.95
2019-02-17T20:06:09.203Z,99188.45
2019-02-17T20:08:40.558Z,99186.45
2019-02-17T20:11:11.997Z,99190.28
2019-02-17T20:13:43.454Z,99197.25
2019-02-17T20:16:15.883Z,99194.25
2019-02-17T20:18:47.382Z,99181.27
2019-02-17T20:21:18.714Z,99197.92
2019-02-17T20:23:50.062Z,99192.59
2019-02-17T20:26:21.384Z,99195.88
2019-02-17T20:28:57.226Z,99205.72
2019-02-17T20:31:25.875Z,99221.69
2019-02-17T20:33:57.329Z,99206.17
2019-02-17T20:36:30.022Z,99202.34
2019-02-17T20:39:01.479Z,99207.16
2019-02-17T20:41:34.001Z,99208.52
2019-02-17T20:44:05.368Z,99208.97
2019-02-17T20:46:36.828Z,99207.16
2019-02-17T20:49:08.287Z,99209.80
2019-02-17T20:51:39.726Z,99205.46
2019-02-17T20:54:11.194Z,99224.05
2019-02-17T20:56:42.564Z,99220.84
2019-02-17T20:59:13.883Z,99226.97
2019-02-17T21:01:45.312Z,99243.34
2019-02-17T21:04:16.823Z,99233.19
2019-02-17T21:06:48.228Z,99226.19
2019-02-17T21:09:19.590Z,99231.47
2019-02-17T21:11:50.964Z,99235.42
2019-02-17T21:14:22.359Z,99233.56
2019-02-17T21:16:53.813Z,99230.22
2019-02-17T21:19:25.174Z,99225.39
2019-02-17T21:21:56.634Z,99236.70
2019-02-17T21:24:28.067Z,99229.49
2019-02-17T21:26:59.398Z,99243.16
2019-02-17T21:29:30.864Z,99241.55
2019-02-17T21:32:03.375Z,99239.82
2019-02-17T21:34:34.800Z,99239.13
2019-02-17T21:37:06.132Z,99240.77
2019-02-17T21:39:37.599Z,99229.30
2019-02-17T21:42:09.074Z,99233.03
2019-02-17T21:44:40.515Z,99235.41
2019-02-17T21:47:11.935Z,99237.54
2019-02-17T21:49:43.286Z,99238.33
2019-02-17T21:52:14.636Z,99241.24
2019-02-17T21:54:46.065Z,99241.02
2019-02-17T21:57:18.582Z,99243.98
2019-02-17T21:59:50.008Z,99243.31
2019-02-17T22:02:21.465Z,99242.08
2019-02-17T22:04:53.001Z,99249.73
2019-02-17T22:07:24.165Z,99247.64
2019-02-17T22:09:55.597Z,99242.70
2019-02-17T22:12:27.055Z,99245.45
2019-02-17T22:14:59.477Z,99249.63
2019-02-17T22:17:30.870Z,99244.84
2019-02-17T22:20:02.426Z,99254.30
2019-02-17T22:22:33.851Z,99255.85
2019-02-17T22:25:06.624Z,99263.75
2019-02-17T22:27:37.930Z,99253.36
2019-02-17T22:30:12.530Z,99251.66
2019-02-17T22:32:43.878Z,99256.33
2019-02-17T22:35:15.322Z,99260.08
2019-02-17T22:37:46.679Z,99258.21
2019-02-17T22:40:18.129Z,99262.40
2019-02-17T22:42:49.435Z,99261.32
2019-02-17T22:45:20.812Z,99269.51
2019-02-17T22:47:52.272Z,99264.75
2019-02-17T22:50:23.510Z,99259.70
2019-02-17T22:52:54.962Z,99265.14
2019-02-17T22:55:26.313Z,99266.56
2019-02-17T22:57:57.799Z,99262.64
2019-02-17T23:00:52.985Z,99265.05
2019-02-17T23:03:25.840Z,99267.16
2019-02-17T23:05:57.198Z,99273.72
2019-02-17T23:08:28.552Z,99282.30
2019-02-17T23:10:59.876Z,99289.53
2019-02-17T23:13:31.353Z,99284.55
2019-02-17T23:16:02.721Z,99288.20
2019-02-17T23:18:34.058Z,99287.57
2019-02-17T23:21:05.509Z,99292.91
2019-02-17T23:23:36.922Z,99300.05
2019-02-17T23:26:08.508Z,99295.83
2019-02-17T23:28:39.948Z,99298.06
2019-02-17T23:31:11.313Z,99307.02
2019-02-17T23:33:42.667Z,99303.52
2019-02-17T23:36:14.099Z,99297.13
2019-02-17T23:38:45.402Z,99300.54
2019-02-17T23:41:16.899Z,99305.44
2019-02-17T23:43:48.250Z,99301.64
2019-02-17T23:46:19.732Z,99302.09
2019-02-17T23:48:51.034Z,99303.89
2019-02-17T23:51:22.523Z,99308.85
2019-02-17T23:53:53.933Z,99318.82
2019-02-17T23:56:25.400Z,99313.75
2019-02-17T23:58:56.844Z,99311.14
